createdAt,value
2023-04-27T00:01:45.218Z,1.20
2023-04-27T00:04:14.458Z,1.27
2023-04-27T00:06:42.331Z,1.58
2023-04-27T00:09:09.701Z,0.95
2023-04-27T00:11:36.872Z,0.85
2023-04-27T00:14:04.193Z,1.65
2023-04-27T00:16:31.439Z,1.40
2023-04-27T00:18:58.664Z,1.40
2023-04-27T00:21:25.857Z,1.50
2023-04-27T00:23:54.155Z,1.13
2023-04-27T00:26:22.391Z,0.95
2023-04-27T00:28:49.575Z,1.07
2023-04-27T00:31:16.786Z,0.90
2023-04-27T00:33:44.002Z,2.17
2023-04-27T00:36:11.359Z,1.10
2023-04-27T00:38:38.571Z,1.20
2023-04-27T00:41:07.353Z,1.23
2023-04-27T00:43:45.561Z,1.30
2023-04-27T00:46:14.462Z,1.80
2023-04-27T00:48:42.246Z,0.88
2023-04-27T00:51:09.410Z,0.88
2023-04-27T00:53:37.342Z,1.30
2023-04-27T00:56:05.857Z,1.40
2023-04-27T00:58:33.089Z,1.02
2023-04-27T01:01:01.119Z,1.17
2023-04-27T01:03:28.685Z,1.58
2023-04-27T01:05:56.969Z,0.73
2023-04-27T01:08:24.604Z,1.15
2023-04-27T01:10:51.863Z,0.50
2023-04-27T01:13:19.224Z,0.90
2023-04-27T01:15:46.388Z,2.55
2023-04-27T01:18:13.853Z,1.27
2023-04-27T01:20:42.172Z,1.52
2023-04-27T01:23:14.263Z,1.20
2023-04-27T01:25:43.593Z,0.90
2023-04-27T01:28:10.787Z,0.77
2023-04-27T01:30:37.930Z,1.35
2023-04-27T01:33:05.193Z,1.60
2023-04-27T01:35:32.378Z,1.27
2023-04-27T01:37:59.915Z,0.80
2023-04-27T01:40:27.145Z,1.85
2023-04-27T01:42:54.396Z,0.73
2023-04-27T01:45:21.630Z,0.98
2023-04-27T01:47:50.811Z,0.73
2023-04-27T01:50:18.000Z,0.85
2023-04-27T01:52:45.186Z,0.43
2023-04-27T01:55:12.371Z,1.60
2023-04-27T01:57:39.598Z,1.42
2023-04-27T02:00:07.792Z,0.70
2023-04-27T02:02:35.107Z,1.43
2023-04-27T02:05:02.415Z,1.80
2023-04-27T02:07:29.649Z,0.93
2023-04-27T02:09:56.851Z,2.30
2023-04-27T02:12:24.045Z,1.50
2023-04-27T02:14:51.179Z,1.15
2023-04-27T02:17:18.387Z,1.00
2023-04-27T02:19:45.642Z,1.38
2023-04-27T02:22:12.881Z,1.27
2023-04-27T02:24:40.267Z,0.60
2023-04-27T02:27:07.426Z,1.17
2023-04-27T02:29:38.822Z,0.90
2023-04-27T02:32:07.494Z,1.83
2023-04-27T02:34:34.654Z,0.80
2023-04-27T02:37:01.858Z,2.97
2023-04-27T02:39:29.157Z,1.15
2023-04-27T02:41:56.373Z,0.88
2023-04-27T02:44:23.617Z,0.52
2023-04-27T02:46:51.287Z,0.93
2023-04-27T02:49:18.566Z,0.52
2023-04-27T02:51:45.880Z,0.70
2023-04-27T02:54:13.058Z,2.58
2023-04-27T02:56:40.402Z,0.98
2023-04-27T02:59:07.605Z,0.95
2023-04-27T03:01:34.796Z,0.60
2023-04-27T03:04:02.917Z,0.90
2023-04-27T03:06:30.367Z,0.60
2023-04-27T03:08:57.642Z,0.50
2023-04-27T03:11:24.904Z,0.50
2023-04-27T03:13:52.593Z,1.35
2023-04-27T03:16:20.640Z,1.05
2023-04-27T03:18:48.570Z,1.38
2023-04-27T03:21:16.990Z,1.10
2023-04-27T03:23:44.176Z,0.43
2023-04-27T03:26:13.254Z,0.80
2023-04-27T03:31:08.677Z,1.67
2023-04-27T03:33:36.538Z,0.40
2023-04-27T03:36:04.669Z,0.35
2023-04-27T03:38:32.162Z,1.75
2023-04-27T03:40:59.522Z,0.93
2023-04-27T03:43:27.065Z,0.52
2023-04-27T03:45:54.340Z,0.43
2023-04-27T03:48:24.860Z,0.80
2023-04-27T03:50:52.100Z,0.98
2023-04-27T03:53:19.584Z,0.73
2023-04-27T03:55:47.674Z,1.05
2023-04-27T03:58:14.913Z,1.55
2023-04-27T04:00:42.180Z,1.52
2023-04-27T04:03:09.573Z,0.80
2023-04-27T04:05:37.058Z,1.52
2023-04-27T04:08:04.374Z,0.65
2023-04-27T04:10:32.054Z,1.55
2023-04-27T04:12:59.237Z,0.90
2023-04-27T04:15:26.453Z,1.10
2023-04-27T04:17:53.741Z,0.45
2023-04-27T04:20:21.005Z,0.73
2023-04-27T04:22:51.399Z,0.70
2023-04-27T04:25:18.810Z,0.88
2023-04-27T04:27:46.219Z,0.80
2023-04-27T04:30:13.712Z,1.35
2023-04-27T04:32:41.600Z,0.80
2023-04-27T04:35:09.076Z,3.05
2023-04-27T04:37:36.521Z,1.35
2023-04-27T04:40:10.950Z,0.85
2023-04-27T04:42:39.235Z,0.60
2023-04-27T04:45:07.326Z,0.70
2023-04-27T04:47:34.988Z,1.00
2023-04-27T04:50:02.427Z,1.00
2023-04-27T04:52:29.788Z,1.95
2023-04-27T04:54:56.980Z,0.75
2023-04-27T04:57:24.252Z,0.98
2023-04-27T04:59:51.469Z,1.75
2023-04-27T05:02:18.681Z,2.10
2023-04-27T05:04:46.007Z,2.92
2023-04-27T05:07:15.009Z,3.78
2023-04-27T05:09:42.533Z,4.03
2023-04-27T05:12:09.773Z,6.38
2023-04-27T05:14:36.983Z,4.80
2023-04-27T05:17:04.214Z,6.70
2023-04-27T05:19:31.482Z,2.38
2023-04-27T05:21:59.248Z,13.30
2023-04-27T05:24:26.904Z,10.32
2023-04-27T05:26:54.955Z,4.43
2023-04-27T05:29:22.759Z,4.90
2023-04-27T05:31:50.094Z,7.50
2023-04-27T05:34:17.438Z,9.25
2023-04-27T05:36:44.826Z,8.82
2023-04-27T05:39:12.136Z,8.70
2023-04-27T05:41:39.654Z,7.47
2023-04-27T05:44:07.247Z,6.68
2023-04-27T05:46:35.947Z,2.60
2023-04-27T05:49:05.665Z,5.18
2023-04-27T05:51:33.582Z,4.03
2023-04-27T05:54:02.063Z,2.88
2023-04-27T05:56:29.325Z,3.78
2023-04-27T05:58:56.685Z,4.45
2023-04-27T06:01:24.018Z,3.40
2023-04-27T06:03:51.509Z,3.10
2023-04-27T06:06:21.251Z,2.53
2023-04-27T06:08:48.416Z,2.63
2023-04-27T06:11:16.422Z,2.92
2023-04-27T06:13:43.610Z,2.60
2023-04-27T06:16:10.960Z,5.40
2023-04-27T06:18:38.268Z,4.45
2023-04-27T06:21:05.555Z,2.83
2023-04-27T06:23:32.811Z,2.67
2023-04-27T06:26:00.126Z,3.35
2023-04-27T06:28:27.471Z,2.90
2023-04-27T06:30:55.235Z,3.10
2023-04-27T06:33:22.457Z,3.75
2023-04-27T06:35:49.728Z,2.85
2023-04-27T06:38:16.964Z,2.08
2023-04-27T06:40:44.993Z,2.95
2023-04-27T06:43:12.586Z,2.50
2023-04-27T06:45:40.058Z,2.08
2023-04-27T06:48:07.341Z,4.00
2023-04-27T06:50:34.785Z,3.55
2023-04-27T06:53:01.957Z,3.40
2023-04-27T06:55:29.124Z,2.45
2023-04-27T06:57:56.341Z,4.93
2023-04-27T07:00:23.599Z,1.90
2023-04-27T07:02:51.655Z,2.15
2023-04-27T07:05:19.099Z,2.23
2023-04-27T07:07:46.360Z,1.60
2023-04-27T07:10:13.566Z,2.38
2023-04-27T07:12:41.849Z,1.95
2023-04-27T07:15:09.539Z,2.10
2023-04-27T07:17:36.742Z,4.15
2023-04-27T07:20:06.054Z,1.83
2023-04-27T07:22:33.769Z,3.10
2023-04-27T07:25:00.970Z,6.43
2023-04-27T07:27:28.227Z,5.28
2023-04-27T07:29:55.528Z,3.90
2023-04-27T07:32:22.829Z,2.00
2023-04-27T07:34:53.916Z,3.17
2023-04-27T07:37:22.396Z,3.67
2023-04-27T07:39:50.465Z,2.28
2023-04-27T07:42:18.420Z,1.85
2023-04-27T07:44:45.661Z,2.72
2023-04-27T07:47:13.272Z,3.28
2023-04-27T07:49:40.491Z,1.60
2023-04-27T07:52:08.302Z,2.55
2023-04-27T07:54:36.018Z,5.50
2023-04-27T07:57:09.390Z,3.05
2023-04-27T07:59:36.657Z,2.25
2023-04-27T08:02:18.424Z,2.53
2023-04-27T08:04:47.319Z,3.30
2023-04-27T08:07:16.656Z,1.33
2023-04-27T08:09:44.624Z,1.33
2023-04-27T08:12:11.821Z,2.38
2023-04-27T08:14:39.004Z,1.25
2023-04-27T08:17:06.313Z,1.42
2023-04-27T08:19:33.831Z,0.95
2023-04-27T08:22:01.411Z,1.55
2023-04-27T08:24:28.659Z,1.90
2023-04-27T08:26:55.909Z,1.58
2023-04-27T08:29:27.775Z,1.13
2023-04-27T08:31:58.222Z,2.20
2023-04-27T08:34:28.296Z,2.10
2023-04-27T08:36:56.533Z,2.83
2023-04-27T08:39:24.252Z,0.77
2023-04-27T08:41:51.729Z,1.90
2023-04-27T08:44:18.931Z,1.05
2023-04-27T08:46:46.357Z,1.58
2023-04-27T08:49:15.978Z,1.40
2023-04-27T08:51:44.598Z,1.60
2023-04-27T08:54:11.842Z,1.92
2023-04-27T08:56:39.623Z,2.13
2023-04-27T08:59:15.380Z,1.73
2023-04-27T09:01:48.540Z,2.53
2023-04-27T09:04:17.741Z,1.13
2023-04-27T09:09:23.411Z,1.55
2023-04-27T09:11:51.270Z,0.67
2023-04-27T09:14:22.907Z,1.30
2023-04-27T09:16:58.051Z,1.63
2023-04-27T09:19:29.371Z,0.57
2023-04-27T09:22:08.200Z,1.65
2023-04-27T09:24:35.848Z,2.67
2023-04-27T09:27:03.400Z,1.30
2023-04-27T09:29:37.853Z,2.30
2023-04-27T09:32:23.014Z,2.20
2023-04-27T09:34:50.308Z,1.35
2023-04-27T09:37:19.563Z,0.60
2023-04-27T09:39:47.127Z,0.77
2023-04-27T09:42:15.814Z,2.97
2023-04-27T09:44:43.008Z,1.85
2023-04-27T09:47:11.689Z,1.95
2023-04-27T09:49:38.926Z,0.55
2023-04-27T09:52:06.253Z,0.90
2023-04-27T09:54:35.270Z,1.98
2023-04-27T10:00:23.617Z,0.95
2023-04-27T10:03:20.320Z,1.25
2023-04-27T10:06:25.208Z,0.98
2023-04-27T10:08:52.508Z,0.82
2023-04-27T10:11:19.906Z,0.60
2023-04-27T10:13:54.895Z,1.05
2023-04-27T10:16:22.820Z,0.90
2023-04-27T10:18:55.130Z,1.88
2023-04-27T10:21:23.721Z,2.15
2023-04-27T10:23:52.200Z,1.55
2023-04-27T10:26:23.962Z,0.82
2023-04-27T10:29:19.503Z,1.98
2023-04-27T10:31:48.941Z,1.50
2023-04-27T10:34:23.672Z,1.55
2023-04-27T10:36:50.926Z,2.72
2023-04-27T10:39:19.965Z,1.35
2023-04-27T10:44:27.198Z,5.53
2023-04-27T10:46:56.120Z,2.33
2023-04-27T10:49:23.756Z,0.73
2023-04-27T10:51:51.801Z,1.02
2023-04-27T10:54:19.399Z,2.35
2023-04-27T10:56:47.196Z,0.65
2023-04-27T10:59:16.609Z,2.65
2023-04-27T11:01:43.809Z,1.08
2023-04-27T11:04:11.129Z,2.10
2023-04-27T11:06:48.012Z,4.28
2023-04-27T11:09:28.696Z,1.25
2023-04-27T11:11:55.934Z,13.85
2023-04-27T11:14:23.181Z,93.22
2023-04-27T11:16:50.670Z,94.05
2023-04-27T11:19:17.888Z,80.18
2023-04-27T11:21:45.177Z,51.72
2023-04-27T11:24:15.141Z,41.03
2023-04-27T11:26:42.730Z,34.60
2023-04-27T11:29:13.865Z,45.35
2023-04-27T11:31:47.317Z,26.92
2023-04-27T11:34:36.988Z,26.30
2023-04-27T11:39:38.794Z,15.85
2023-04-27T11:42:22.966Z,14.80
2023-04-27T11:44:57.977Z,22.05
2023-04-27T11:47:27.523Z,18.70
2023-04-27T11:49:59.761Z,12.18
2023-04-27T11:52:34.471Z,17.60
2023-04-27T11:55:02.605Z,12.80
2023-04-27T11:57:34.052Z,10.32
2023-04-27T12:00:10.795Z,14.35
2023-04-27T12:02:38.765Z,9.70
2023-04-27T12:05:07.687Z,9.07
2023-04-27T12:07:35.068Z,8.90
2023-04-27T12:10:02.344Z,9.32
2023-04-27T12:12:29.606Z,7.15
2023-04-27T12:14:57.916Z,6.00
2023-04-27T12:17:25.221Z,6.72
2023-04-27T12:19:52.606Z,3.45
2023-04-27T12:22:20.171Z,2.65
2023-04-27T12:24:47.982Z,6.32
2023-04-27T12:27:15.201Z,2.90
2023-04-27T12:29:42.903Z,3.92
2023-04-27T12:32:12.592Z,1.48
2023-04-27T12:34:39.814Z,2.92
2023-04-27T12:37:07.066Z,5.30
2023-04-27T12:39:34.383Z,3.75
2023-04-27T12:42:02.385Z,4.50
2023-04-27T12:44:29.552Z,5.72
2023-04-27T12:46:56.918Z,3.60
2023-04-27T12:49:24.101Z,2.88
2023-04-27T12:51:52.800Z,3.10
2023-04-27T12:54:21.203Z,4.40
2023-04-27T12:56:48.412Z,5.40
2023-04-27T12:59:16.957Z,4.05
2023-04-27T13:01:45.856Z,2.97
2023-04-27T13:04:19.411Z,5.57
2023-04-27T13:06:47.969Z,2.13
2023-04-27T13:09:17.375Z,2.20
2023-04-27T13:11:44.720Z,2.42
2023-04-27T13:14:15.039Z,2.78
2023-04-27T13:16:43.275Z,3.75
2023-04-27T13:19:10.539Z,3.55
2023-04-27T13:21:38.108Z,2.20
2023-04-27T13:24:05.933Z,4.65
2023-04-27T13:26:33.243Z,7.45
2023-04-27T13:29:01.087Z,4.10
2023-04-27T13:31:28.789Z,1.40
2023-04-27T13:33:56.123Z,4.90
2023-04-27T13:36:24.377Z,5.68
2023-04-27T13:38:51.866Z,5.50
2023-04-27T13:41:19.694Z,3.08
2023-04-27T13:43:46.927Z,3.78
2023-04-27T13:46:14.289Z,3.92
2023-04-27T13:48:42.532Z,2.85
2023-04-27T13:51:10.217Z,4.67
2023-04-27T13:53:37.385Z,2.28
2023-04-27T13:56:04.686Z,4.57
2023-04-27T13:58:32.215Z,3.78
2023-04-27T14:01:00.318Z,3.20
2023-04-27T14:03:27.798Z,5.33
2023-04-27T14:05:55.961Z,2.70
2023-04-27T14:08:23.207Z,4.82
2023-04-27T14:10:50.586Z,5.93
2023-04-27T14:13:18.698Z,3.00
2023-04-27T14:15:46.725Z,3.45
2023-04-27T14:18:14.049Z,1.88
2023-04-27T14:20:42.223Z,2.67
2023-04-27T14:23:10.616Z,3.05
2023-04-27T14:25:39.036Z,5.53
2023-04-27T14:28:07.084Z,5.47
2023-04-27T14:30:37.711Z,6.03
2023-04-27T14:33:04.984Z,4.65
2023-04-27T14:35:35.057Z,5.15
2023-04-27T14:38:02.591Z,2.30
2023-04-27T14:40:33.193Z,2.08
2023-04-27T14:43:00.479Z,3.33
2023-04-27T14:45:36.631Z,3.20
2023-04-27T14:48:11.219Z,4.38
2023-04-27T14:50:38.564Z,2.60
2023-04-27T14:53:05.971Z,1.40
2023-04-27T14:55:33.302Z,3.65
2023-04-27T14:58:00.942Z,2.13
2023-04-27T15:00:28.258Z,4.50
2023-04-27T15:02:55.516Z,5.15
2023-04-27T15:05:22.794Z,2.42
2023-04-27T15:07:50.147Z,2.42
2023-04-27T15:10:17.360Z,2.20
2023-04-27T15:12:45.036Z,4.20
2023-04-27T15:15:14.960Z,2.05
2023-04-27T15:17:42.390Z,6.80
2023-04-27T15:20:11.148Z,3.35
2023-04-27T15:22:38.354Z,4.05
2023-04-27T15:25:05.968Z,3.40
2023-04-27T15:27:33.356Z,2.42
2023-04-27T15:30:02.481Z,2.60
2023-04-27T15:32:30.429Z,3.17
2023-04-27T15:35:00.534Z,2.40
2023-04-27T15:37:28.569Z,2.10
2023-04-27T15:39:56.034Z,2.28
2023-04-27T15:42:24.204Z,5.55
2023-04-27T15:44:51.678Z,2.40
2023-04-27T15:47:18.936Z,3.35
2023-04-27T15:49:56.283Z,2.58
2023-04-27T15:52:24.601Z,3.17
2023-04-27T15:54:51.808Z,1.88
2023-04-27T15:57:19.394Z,3.00
2023-04-27T15:59:46.682Z,4.75
2023-04-27T16:02:17.342Z,5.53
2023-04-27T16:04:44.642Z,3.38
2023-04-27T16:07:11.865Z,2.78
2023-04-27T16:09:39.094Z,4.32
2023-04-27T16:12:06.480Z,3.40
2023-04-27T16:14:33.695Z,2.05
2023-04-27T16:17:01.676Z,3.03
2023-04-27T16:19:28.984Z,2.88
2023-04-27T16:22:11.159Z,5.70
2023-04-27T16:24:41.709Z,9.27
2023-04-27T16:27:09.044Z,3.00
2023-04-27T16:29:36.653Z,2.45
2023-04-27T16:32:04.116Z,5.38
2023-04-27T16:34:31.395Z,1.42
2023-04-27T16:36:58.615Z,2.22
2023-04-27T16:39:25.803Z,1.67
2023-04-27T16:41:53.098Z,2.90
2023-04-27T16:44:20.482Z,2.83
2023-04-27T16:46:48.686Z,2.40
2023-04-27T16:49:16.071Z,6.50
2023-04-27T16:51:43.550Z,3.28
2023-04-27T16:54:10.975Z,2.10
2023-04-27T16:56:38.286Z,6.40
2023-04-27T16:59:05.535Z,1.13
2023-04-27T17:01:32.958Z,1.92
2023-04-27T17:04:03.620Z,2.35
2023-04-27T17:06:31.101Z,1.00
2023-04-27T17:08:58.706Z,2.95
2023-04-27T17:11:26.414Z,2.47
2023-04-27T17:13:53.669Z,3.03
2023-04-27T17:16:21.836Z,1.55
2023-04-27T17:18:49.316Z,1.85
2023-04-27T17:21:17.369Z,3.15
2023-04-27T17:23:50.087Z,3.77
2023-04-27T17:26:19.950Z,2.10
2023-04-27T17:28:47.751Z,1.33
2023-04-27T17:31:16.514Z,3.88
2023-04-27T17:33:46.630Z,2.40
2023-04-27T17:36:15.051Z,1.52
2023-04-27T17:38:42.342Z,1.95
2023-04-27T17:41:09.564Z,2.17
2023-04-27T17:43:37.760Z,1.98
2023-04-27T17:46:11.025Z,4.37
2023-04-27T17:48:38.229Z,2.88
2023-04-27T17:51:05.450Z,3.38
2023-04-27T17:53:32.637Z,1.63
2023-04-27T17:56:00.253Z,3.55
2023-04-27T17:58:28.059Z,2.45
2023-04-27T18:00:55.673Z,2.78
2023-04-27T18:03:23.444Z,9.90
2023-04-27T18:05:50.821Z,1.50
2023-04-27T18:08:17.985Z,3.42
2023-04-27T18:10:45.293Z,2.35
2023-04-27T18:13:12.969Z,2.35
2023-04-27T18:15:40.248Z,1.15
2023-04-27T18:18:07.531Z,7.00
2023-04-27T18:20:35.338Z,5.60
2023-04-27T18:23:02.512Z,2.65
2023-04-27T18:25:29.667Z,3.72
2023-04-27T18:27:56.894Z,7.50
2023-04-27T18:30:24.829Z,5.28
2023-04-27T18:32:52.107Z,8.27
2023-04-27T18:35:19.683Z,4.65
2023-04-27T18:37:48.326Z,4.13
2023-04-27T18:40:18.810Z,3.65
2023-04-27T18:42:46.018Z,3.72
2023-04-27T18:45:13.220Z,4.40
2023-04-27T18:47:40.450Z,5.15
2023-04-27T18:50:08.189Z,4.60
2023-04-27T18:52:35.471Z,5.07
2023-04-27T18:55:03.500Z,3.45
2023-04-27T18:57:31.234Z,4.68
2023-04-27T18:59:58.394Z,5.18
2023-04-27T19:02:25.983Z,4.38
2023-04-27T19:05:10.437Z,5.10
2023-04-27T19:07:40.143Z,3.53
2023-04-27T19:10:08.052Z,3.38
2023-04-27T19:12:35.887Z,2.92
2023-04-27T19:15:03.399Z,2.97
2023-04-27T19:17:31.118Z,7.80
2023-04-27T19:19:58.636Z,2.90
2023-04-27T19:22:27.089Z,3.50
2023-04-27T19:24:54.403Z,5.60
2023-04-27T19:27:21.992Z,10.55
2023-04-27T19:29:54.294Z,12.05
2023-04-27T19:32:25.193Z,8.77
2023-04-27T19:34:52.831Z,8.13
2023-04-27T19:37:20.076Z,4.93
2023-04-27T19:39:47.257Z,6.80
2023-04-27T19:42:15.316Z,8.57
2023-04-27T19:44:42.660Z,6.10
2023-04-27T19:47:12.762Z,5.88
2023-04-27T19:49:40.366Z,6.30
2023-04-27T19:52:07.699Z,5.55
2023-04-27T19:54:37.987Z,4.47
2023-04-27T19:57:05.256Z,7.13
2023-04-27T19:59:32.434Z,7.85
2023-04-27T20:01:59.794Z,3.58
2023-04-27T20:04:27.453Z,5.53
2023-04-27T20:06:54.776Z,4.70
2023-04-27T20:09:24.198Z,8.13
2023-04-27T20:11:51.456Z,6.43
2023-04-27T20:14:18.795Z,3.85
2023-04-27T20:16:46.060Z,4.93
2023-04-27T20:19:15.336Z,5.00
2023-04-27T20:21:43.258Z,3.70
2023-04-27T20:24:10.623Z,5.00
2023-04-27T20:26:37.863Z,3.33
2023-04-27T20:29:05.089Z,4.18
2023-04-27T20:31:32.291Z,4.13
2023-04-27T20:33:59.477Z,3.55
2023-04-27T20:36:27.561Z,3.95
2023-04-27T20:38:54.843Z,3.53
2023-04-27T20:41:22.058Z,5.32
2023-04-27T20:43:52.292Z,3.55
2023-04-27T20:46:19.749Z,4.82
2023-04-27T20:48:47.318Z,5.18
2023-04-27T20:51:14.555Z,6.13
2023-04-27T20:53:41.858Z,2.83
2023-04-27T20:56:09.099Z,6.28
2023-04-27T20:58:36.438Z,2.65
2023-04-27T21:01:03.662Z,3.75
2023-04-27T21:03:31.408Z,6.50
2023-04-27T21:05:58.628Z,4.70
2023-04-27T21:08:26.031Z,4.05
2023-04-27T21:10:53.229Z,3.13
2023-04-27T21:13:20.563Z,4.03
2023-04-27T21:15:47.764Z,4.57
2023-04-27T21:18:29.039Z,3.47
2023-04-27T21:20:58.064Z,3.05
2023-04-27T21:23:25.339Z,3.72
2023-04-27T21:25:52.517Z,6.50
2023-04-27T21:28:19.763Z,3.40
2023-04-27T21:30:47.076Z,3.33
2023-04-27T21:33:14.324Z,4.07
2023-04-27T21:35:41.561Z,4.13
2023-04-27T21:38:08.753Z,3.55
2023-04-27T21:40:36.112Z,4.78
2023-04-27T21:43:03.311Z,3.67
2023-04-27T21:45:30.534Z,3.22
2023-04-27T21:47:57.715Z,3.13
2023-04-27T21:50:24.944Z,4.78
2023-04-27T21:52:52.133Z,6.10
2023-04-27T21:55:19.278Z,5.10
2023-04-27T21:57:46.478Z,3.47
2023-04-27T22:00:14.600Z,3.65
2023-04-27T22:02:42.482Z,2.90
2023-04-27T22:05:10.647Z,6.95
2023-04-27T22:07:38.239Z,5.25
2023-04-27T22:10:05.877Z,4.35
2023-04-27T22:12:33.575Z,2.63
2023-04-27T22:15:00.876Z,5.88
2023-04-27T22:17:28.208Z,4.28
2023-04-27T22:19:55.576Z,4.50
2023-04-27T22:22:22.805Z,5.72
2023-04-27T22:24:49.976Z,5.57
2023-04-27T22:27:17.203Z,5.32
2023-04-27T22:29:44.386Z,4.32
2023-04-27T22:32:11.641Z,4.50
2023-04-27T22:34:38.824Z,6.22
2023-04-27T22:37:06.972Z,4.45
2023-04-27T22:39:34.364Z,6.20
2023-04-27T22:42:01.535Z,4.45
2023-04-27T22:44:28.738Z,3.70
2023-04-27T22:46:56.171Z,5.68
2023-04-27T22:49:24.114Z,3.78
2023-04-27T22:51:51.472Z,3.47
2023-04-27T22:54:18.746Z,4.47
2023-04-27T22:56:46.068Z,3.67
2023-04-27T22:59:13.363Z,4.50
2023-04-27T23:01:40.603Z,6.40
2023-04-27T23:04:08.985Z,2.25
2023-04-27T23:06:36.449Z,4.82
2023-04-27T23:09:03.753Z,3.75
2023-04-27T23:11:30.918Z,6.68
2023-04-27T23:13:58.138Z,3.67
2023-04-27T23:16:25.808Z,3.10
2023-04-27T23:18:53.388Z,4.88
2023-04-27T23:21:20.555Z,5.50
2023-04-27T23:23:47.747Z,2.40
2023-04-27T23:26:16.302Z,3.35
2023-04-27T23:28:44.182Z,3.13
2023-04-27T23:31:11.752Z,4.93
2023-04-27T23:33:39.081Z,3.33
2023-04-27T23:36:06.456Z,2.85
2023-04-27T23:38:33.652Z,4.68
2023-04-27T23:41:00.852Z,5.28
2023-04-27T23:43:28.022Z,2.10
2023-04-27T23:45:55.775Z,3.13
2023-04-27T23:48:23.020Z,3.53
2023-04-27T23:50:54.826Z,2.88
2023-04-27T23:53:21.976Z,2.72
2023-04-27T23:55:49.118Z,4.05
2023-04-27T23:58:16.275Z,5.03
